Transporter — EAJI — position and weather

sailwx.info

Track history (hours):
 
Tides and Currents Weather Stations Pressure Air Temp Water Temp Dewpoint Dewpoint Depression Visibility Wind Speed Wind Dir Waves Ship Positions

Transporter

Last reported at 2017-Oct-18 23:54 UTC. Time now 2017-Oct-19 00:25 UTC.
Position N 36°08' W 005°26'.

Length 122 m; draft 5.8 m.

Type: Ship. MMSI: 225456000.

Date/timePositionNaut miles runAvg speedWind from/ knotsBaromVisibWave heightAir tempDewpointWater temp
2017-Oct-18 23:54N 36°08' W 005°26'0 0.0
2017-Oct-18 23:30N 36°08' W 005°26'0 0.0
2017-Oct-18 22:55N 36°08' W 005°26'0 0.0
2017-Oct-18 22:20N 36°08' W 005°26'0 0.0
2017-Oct-18 21:56N 36°08' W 005°26'0 0.0
2017-Oct-18 21:26N 36°08' W 005°26'0 0.0
2017-Oct-18 20:44N 36°08' W 005°26'0 0.0
2017-Oct-18 20:26N 36°08' W 005°26'1 3.3
2017-Oct-18 20:00N 36°09' W 005°25'714.2
2017-Oct-18 19:30N 36°03' W 005°20'713.2
2017-Oct-18 19:00N 35°56' W 005°19'3 5.4
2017-Oct-18 18:30N 35°54' W 005°19'0 0.0
2017-Oct-18 17:59N 35°54' W 005°19'0 0.0
2017-Oct-18 17:29N 35°54' W 005°19'0 0.0
2017-Oct-18 16:59N 35°54' W 005°19'0 0.0
2017-Oct-18 16:29N 35°54' W 005°19'0 0.0
2017-Oct-18 15:59N 35°54' W 005°19'0 0.0
2017-Oct-18 15:29N 35°54' W 005°19'0 0.0
2017-Oct-18 14:58N 35°54' W 005°19'0 0.0
2017-Oct-18 13:59N 35°54' W 005°19'0 0.6
2017-Oct-18 13:30N 35°54' W 005°19'3 6.5
2017-Oct-18 13:00N 35°57' W 005°19'815.0
2017-Oct-18 12:31N 36°04' W 005°22'5 9.7
2017-Oct-18 11:59N 36°08' W 005°26'0 0.1
2017-Oct-18 11:20N 36°08' W 005°26'0 0.0
2017-Oct-18 10:57N 36°08' W 005°26'0 0.0
2017-Oct-18 09:14N 36°08' W 005°26'0 0.0
2017-Oct-18 08:27N 36°08' W 005°26'0 0.0
2017-Oct-18 07:57N 36°08' W 005°26'0 0.0
2017-Oct-18 07:27N 36°08' W 005°26'0 0.0
2017-Oct-18 06:56N 36°08' W 005°26'0 0.0
2017-Oct-18 06:26N 36°08' W 005°26'0 0.0
2017-Oct-18 05:56N 36°08' W 005°26'0 0.0
2017-Oct-18 05:14N 36°08' W 005°26'0 0.0
2017-Oct-18 04:57N 36°08' W 005°26'0 0.0
2017-Oct-18 04:28N 36°08' W 005°26'0 0.0
2017-Oct-18 03:59N 36°08' W 005°26'0 0.0
2017-Oct-18 03:26N 36°08' W 005°26'0 0.0
2017-Oct-18 02:51N 36°08' W 005°26'0 0.0
2017-Oct-18 02:26N 36°08' W 005°26'0 0.0
2017-Oct-18 01:57N 36°08' W 005°26'0 0.0
2017-Oct-18 01:26N 36°08' W 005°26'0 0.0
2017-Oct-18 00:56N 36°08' W 005°26'0 0.0
2017-Oct-18 00:21N 36°08' W 005°26'0 0.0
2017-Oct-17 23:57N 36°08' W 005°26'0 0.0
2017-Oct-17 23:26N 36°08' W 005°26'0 0.0
2017-Oct-17 22:50N 36°08' W 005°26'0 0.0
2017-Oct-17 22:26N 36°08' W 005°26'0 0.0
2017-Oct-17 21:56N 36°08' W 005°26'2 3.3
2017-Oct-17 21:28N 36°08' W 005°24'714.8
2017-Oct-17 21:00N 36°02' W 005°21'713.6
2017-Oct-17 20:30N 35°55' W 005°19'1 2.6
2017-Oct-17 20:00N 35°54' W 005°19'0 0.0
2017-Oct-17 19:27N 35°54' W 005°19'0 0.0
2017-Oct-17 19:00N 35°54' W 005°19'0 0.0
2017-Oct-17 18:30N 35°54' W 005°19'0 0.0
2017-Oct-17 18:00N 35°54' W 005°19'0 0.0
2017-Oct-17 17:30N 35°54' W 005°19'0 0.0
2017-Oct-17 17:00N 35°54' W 005°19'0 0.0
2017-Oct-17 16:30N 35°54' W 005°19'0 0.0
2017-Oct-17 16:00N 35°54' W 005°19'0 0.0
2017-Oct-17 15:30N 35°54' W 005°19'0 0.0
2017-Oct-17 15:00N 35°54' W 005°19'0 0.0
2017-Oct-17 14:30N 35°54' W 005°19'0 0.0
2017-Oct-17 14:00N 35°54' W 005°19'1 2.0
2017-Oct-17 13:31N 35°54' W 005°18'2 3.0
2017-Oct-17 13:00N 35°56' W 005°18'715.0
2017-Oct-17 12:31N 36°03' W 005°22'6 0.9
2017-Oct-17 05:36N 36°08' W 005°26'0 0.0
2017-Oct-17 05:26N 36°08' W 005°26'0 0.0
2017-Oct-17 05:00N 36°08' W 005°26'0 0.0
2017-Oct-17 04:24N 36°08' W 005°26'0 0.0
2017-Oct-17 03:54N 36°08' W 005°26'0 0.0
2017-Oct-17 03:12N 36°08' W 005°26'0 0.0
2017-Oct-17 03:01N 36°08' W 005°26'0 0.0
2017-Oct-17 02:30N 36°08' W 005°26'0 0.0
2017-Oct-17 02:01N 36°08' W 005°26'0 0.0
2017-Oct-17 01:31N 36°08' W 005°26'0 0.0
2017-Oct-16 21:24N 36°08' W 005°26'0 0.0
2017-Oct-16 20:57N 36°08' W 005°26'4 2.0
2017-Oct-16 18:47N 36°05' W 005°22'414.6
2017-Oct-16 18:31N 36°01' W 005°21'713.6
2017-Oct-16 18:01N 35°54' W 005°19'1 1.6
2017-Oct-16 17:30N 35°54' W 005°19'0 0.0
2017-Oct-16 17:00N 35°54' W 005°19'0 0.0
2017-Oct-16 16:30N 35°54' W 005°19'0 0.0
2017-Oct-16 16:00N 35°54' W 005°19'0 0.0
2017-Oct-16 15:30N 35°54' W 005°19'0 0.0
2017-Oct-16 15:00N 35°54' W 005°19'0 0.0
2017-Oct-16 14:00N 35°54' W 005°19'0 0.0
2017-Oct-16 13:30N 35°54' W 005°19'0 0.0
2017-Oct-16 13:00N 35°54' W 005°19'4 8.0
2017-Oct-16 12:31N 35°58' W 005°19'12 1.6
2017-Oct-16 05:15N 36°08' W 005°26'0 0.0
2017-Oct-16 04:59N 36°08' W 005°26'0 0.0
2017-Oct-16 04:27N 36°08' W 005°26'0 0.0
2017-Oct-16 03:51N 36°08' W 005°26'0 0.0
2017-Oct-16 03:27N 36°08' W 005°26'0 0.0
2017-Oct-16 02:51N 36°08' W 005°26'0 0.0
2017-Oct-16 02:21N 36°08' W 005°26'0 0.0
2017-Oct-16 01:51N 36°08' W 005°26'0 0.0
2017-Oct-16 01:27N 36°08' W 005°26'0 0.0
2017-Oct-16 00:57N 36°08' W 005°26'0 0.0
2017-Oct-16 00:27N 36°08' W 005°26'0 0.0
2017-Oct-15 23:57N 36°08' W 005°26'0 0.0
2017-Oct-15 23:29N 36°08' W 005°26'0 0.0
2017-Oct-15 22:51N 36°08' W 005°26'0 0.0
2017-Oct-15 22:27N 36°08' W 005°26'0 0.0
2017-Oct-15 21:57N 36°08' W 005°26'0 0.0
2017-Oct-15 21:27N 36°08' W 005°26'0 0.0
2017-Oct-15 20:58N 36°08' W 005°26'0 0.0
2017-Oct-15 20:22N 36°08' W 005°26'0 0.0
2017-Oct-15 19:52N 36°08' W 005°26'0 0.0
2017-Oct-15 19:28N 36°08' W 005°26'0 0.0
2017-Oct-15 13:58N 36°08' W 005°26'0 0.0
2017-Oct-15 13:28N 36°08' W 005°26'0 0.0
2017-Oct-15 12:58N 36°08' W 005°26'0 0.0
2017-Oct-15 08:06N 36°08' W 005°26'0 0.0
2017-Oct-15 07:58N 36°08' W 005°26'0 0.0
2017-Oct-15 04:22N 36°08' W 005°26'0 0.0
2017-Oct-15 03:58N 36°08' W 005°26'0 0.0
2017-Oct-15 03:28N 36°08' W 005°26'0 0.0
2017-Oct-15 02:58N 36°08' W 005°26'0 0.0
2017-Oct-15 01:22N 36°08' W 005°26'0 0.0
2017-Oct-15 00:58N 36°08' W 005°26'0 0.0
2017-Oct-15 00:28N 36°08' W 005°26'0 0.0
2017-Oct-15 00:00N 36°08' W 005°26'0 0.0
2017-Oct-14 23:28N 36°08' W 005°26'0 0.0
2017-Oct-14 22:58N 36°08' W 005°26'0 0.0
2017-Oct-14 22:28N 36°08' W 005°26'0 0.0
2017-Oct-14 21:58N 36°08' W 005°26'0 0.0
2017-Oct-14 21:28N 36°08' W 005°26'0 0.0
2017-Oct-14 20:58N 36°08' W 005°26'0 0.0
2017-Oct-14 20:22N 36°08' W 005°26'0 0.0
2017-Oct-14 14:52N 36°08' W 005°26'0 0.0
2017-Oct-14 14:30N 36°08' W 005°26'0 0.0
2017-Oct-14 14:00N 36°08' W 005°26'0 0.0
2017-Oct-14 13:22N 36°08' W 005°26'0 0.0
2017-Oct-14 10:04N 36°08' W 005°26'0 0.0
2017-Oct-14 09:58N 36°08' W 005°26'0 0.0
2017-Oct-14 09:22N 36°08' W 005°26'0 0.0
2017-Oct-14 04:40N 36°08' W 005°26'0 0.0
2017-Oct-14 04:22N 36°08' W 005°26'0 0.0
2017-Oct-14 03:52N 36°08' W 005°26'0 0.0
2017-Oct-14 03:10N 36°08' W 005°26'0 0.0
2017-Oct-14 02:52N 36°08' W 005°26'0 0.0
2017-Oct-14 02:04N 36°08' W 005°26'0 0.0
2017-Oct-14 01:46N 36°08' W 005°26'0 0.0
2017-Oct-14 01:16N 36°08' W 005°26'0 0.0
2017-Oct-14 00:58N 36°08' W 005°26'0 0.0
2017-Oct-13 23:46N 36°08' W 005°26'0 0.0
2017-Oct-13 22:55N 36°08' W 005°26'0 0.0
2017-Oct-13 21:40N 36°08' W 005°26'0 0.0
2017-Oct-13 20:37N 36°08' W 005°26'0 0.0
2017-Oct-13 20:19N 36°08' W 005°26'2 3.2
2017-Oct-13 19:50N 36°08' W 005°24'414.0
2017-Oct-13 19:30N 36°03' W 005°22'713.7
2017-Oct-13 19:00N 35°57' W 005°20'3 5.9
2017-Oct-13 18:30N 35°54' W 005°19'0 0.0
2017-Oct-13 18:00N 35°54' W 005°19'0 0.0
2017-Oct-13 17:30N 35°54' W 005°19'0 0.0
2017-Oct-13 17:00N 35°54' W 005°19'0 0.0
2017-Oct-13 16:30N 35°54' W 005°19'0 0.0
2017-Oct-13 16:00N 35°54' W 005°19'0 0.0
2017-Oct-13 15:27N 35°54' W 005°19'0 0.0
2017-Oct-13 15:00N 35°54' W 005°19'0 0.0
2017-Oct-13 14:30N 35°54' W 005°19'1 1.4
2017-Oct-13 14:00N 35°54' W 005°19'0 0.9
2017-Oct-13 13:30N 35°54' W 005°18'2 3.3
2017-Oct-13 13:00N 35°56' W 005°19'813.9
2017-Oct-13 12:28N 36°03' W 005°22'6 0.9
2017-Oct-13 05:48N 36°08' W 005°26'0 0.0
2017-Oct-13 05:24N 36°08' W 005°26'0 0.0
2017-Oct-13 05:00N 36°08' W 005°26'0 0.0
2017-Oct-13 04:30N 36°08' W 005°26'0 0.0
2017-Oct-13 03:54N 36°08' W 005°26'0 0.0
2017-Oct-13 03:30N 36°08' W 005°26'0 0.0
2017-Oct-13 00:48N 36°08' W 005°26'0 0.0
2017-Oct-13 00:30N 36°08' W 005°26'0 0.0
2017-Oct-13 00:00N 36°08' W 005°26'0 0.0
2017-Oct-12 23:18N 36°08' W 005°26'0 0.0
2017-Oct-12 22:56N 36°08' W 005°26'0 0.0
2017-Oct-12 22:26N 36°08' W 005°26'0 0.0
2017-Oct-12 21:56N 36°08' W 005°26'0 0.0
2017-Oct-12 21:30N 36°08' W 005°26'0 0.0
2017-Oct-12 20:38N 36°08' W 005°26'0 0.0
2017-Oct-12 19:24N 36°08' W 005°26'0 0.0
2017-Oct-12 15:45N 36°08' W 005°26'0 0.0
2017-Oct-12 15:30N 36°08' W 005°26'0 0.0
2017-Oct-12 14:18N 36°08' W 005°26'0 0.0
2017-Oct-12 14:00N 36°08' W 005°26'0 0.0
2017-Oct-12 13:24N 36°08' W 005°26'0 0.0
2017-Oct-12 12:42N 36°08' W 005°26'0 0.0
2017-Oct-12 12:30N 36°08' W 005°26'0 0.0
2017-Oct-12 04:54N 36°08' W 005°26'0 0.0
2017-Oct-12 03:18N 36°08' W 005°26'0 0.0
2017-Oct-12 03:00N 36°08' W 005°26'0 0.0
2017-Oct-12 02:24N 36°08' W 005°26'0 0.0
2017-Oct-12 02:00N 36°08' W 005°26'0 0.0
2017-Oct-12 01:30N 36°08' W 005°26'0 0.0
2017-Oct-12 01:00N 36°08' W 005°26'0 0.0
2017-Oct-12 00:25N 36°08' W 005°26'0 0.0
2017-Oct-11 23:49N 36°08' W 005°26'0 0.0
2017-Oct-11 23:19N 36°08' W 005°26'0 0.0
2017-Oct-11 22:55N 36°08' W 005°26'0 0.0
2017-Oct-11 21:19N 36°08' W 005°26'0 0.0
2017-Oct-11 20:55N 36°08' W 005°26'0 0.0
2017-Oct-11 20:16N 36°08' W 005°26'0 0.0
2017-Oct-11 19:55N 36°08' W 005°26'1 0.6
2017-Oct-11 18:04N 36°09' W 005°25'615.8
2017-Oct-11 17:42N 36°04' W 005°22'314.2
2017-Oct-11 17:31N 36°01' W 005°21'714.2
2017-Oct-11 17:00N 35°54' W 005°18'15 0.9
2017-Oct-10 23:58N 36°08' W 005°26'0 0.0
2017-Oct-10 19:58N 36°08' W 005°26'1 2.3
2017-Oct-10 19:30N 36°09' W 005°25'714.0
2017-Oct-10 19:01N 36°02' W 005°21'714.4
2017-Oct-10 18:31N 35°56' W 005°19'2 3.6
2017-Oct-10 18:00N 35°54' W 005°19'0 0.0
2017-Oct-10 17:30N 35°54' W 005°19'0 0.0
2017-Oct-10 17:00N 35°54' W 005°19'0 0.0
2017-Oct-10 16:30N 35°54' W 005°19'0 0.0
2017-Oct-10 16:00N 35°54' W 005°19'0 0.0
2017-Oct-10 15:30N 35°54' W 005°19'0 0.0
2017-Oct-10 15:00N 35°54' W 005°19'0 0.0
2017-Oct-10 14:00N 35°54' W 005°19'0 0.0
2017-Oct-10 13:30N 35°54' W 005°19'0 0.0
2017-Oct-10 13:00N 35°54' W 005°19'2 4.7
2017-Oct-10 12:30N 35°56' W 005°19'815.0
2017-Oct-10 12:00N 36°03' W 005°22'612.0
2017-Oct-10 11:29N 36°09' W 005°26'1 1.2
2017-Oct-10 10:56N 36°08' W 005°26'  
Track history (hours):
 
Tides and Currents Weather Stations Pressure Air Temp Water Temp Dewpoint Dewpoint Depression Visibility Wind Speed Wind Dir Waves Ship Positions

Transporter

Last reported at 2017-Oct-18 23:54 UTC. Time now 2017-Oct-19 00:25 UTC.
Position N 36°08' W 005°26'.

Length 122 m; draft 5.8 m.

Type: Ship. MMSI: 225456000.

Date/timePositionNaut miles runAvg speedWind from/ knotsBaromVisibWave heightAir tempDewpointWater temp
2017-Oct-18 23:54N 36°08' W 005°26'0 0.0
2017-Oct-18 23:30N 36°08' W 005°26'0 0.0
2017-Oct-18 22:55N 36°08' W 005°26'0 0.0
2017-Oct-18 22:20N 36°08' W 005°26'0 0.0
2017-Oct-18 21:56N 36°08' W 005°26'0 0.0
2017-Oct-18 21:26N 36°08' W 005°26'0 0.0
2017-Oct-18 20:44N 36°08' W 005°26'0 0.0
2017-Oct-18 20:26N 36°08' W 005°26'1 3.3
2017-Oct-18 20:00N 36°09' W 005°25'714.2
2017-Oct-18 19:30N 36°03' W 005°20'713.2
2017-Oct-18 19:00N 35°56' W 005°19'3 5.4
2017-Oct-18 18:30N 35°54' W 005°19'0 0.0
2017-Oct-18 17:59N 35°54' W 005°19'0 0.0
2017-Oct-18 17:29N 35°54' W 005°19'0 0.0
2017-Oct-18 16:59N 35°54' W 005°19'0 0.0
2017-Oct-18 16:29N 35°54' W 005°19'0 0.0
2017-Oct-18 15:59N 35°54' W 005°19'0 0.0
2017-Oct-18 15:29N 35°54' W 005°19'0 0.0
2017-Oct-18 14:58N 35°54' W 005°19'0 0.0
2017-Oct-18 13:59N 35°54' W 005°19'0 0.6
2017-Oct-18 13:30N 35°54' W 005°19'3 6.5
2017-Oct-18 13:00N 35°57' W 005°19'815.0
2017-Oct-18 12:31N 36°04' W 005°22'5 9.7
2017-Oct-18 11:59N 36°08' W 005°26'0 0.1
2017-Oct-18 11:20N 36°08' W 005°26'0 0.0
2017-Oct-18 10:57N 36°08' W 005°26'0 0.0
2017-Oct-18 09:14N 36°08' W 005°26'0 0.0
2017-Oct-18 08:27N 36°08' W 005°26'0 0.0
2017-Oct-18 07:57N 36°08' W 005°26'0 0.0
2017-Oct-18 07:27N 36°08' W 005°26'0 0.0
2017-Oct-18 06:56N 36°08' W 005°26'0 0.0
2017-Oct-18 06:26N 36°08' W 005°26'0 0.0
2017-Oct-18 05:56N 36°08' W 005°26'0 0.0
2017-Oct-18 05:14N 36°08' W 005°26'0 0.0
2017-Oct-18 04:57N 36°08' W 005°26'0 0.0
2017-Oct-18 04:28N 36°08' W 005°26'0 0.0
2017-Oct-18 03:59N 36°08' W 005°26'0 0.0
2017-Oct-18 03:26N 36°08' W 005°26'0 0.0
2017-Oct-18 02:51N 36°08' W 005°26'0 0.0
2017-Oct-18 02:26N 36°08' W 005°26'0 0.0
2017-Oct-18 01:57N 36°08' W 005°26'0 0.0
2017-Oct-18 01:26N 36°08' W 005°26'0 0.0
2017-Oct-18 00:56N 36°08' W 005°26'0 0.0
2017-Oct-18 00:21N 36°08' W 005°26'0 0.0
2017-Oct-17 23:57N 36°08' W 005°26'0 0.0
2017-Oct-17 23:26N 36°08' W 005°26'0 0.0
2017-Oct-17 22:50N 36°08' W 005°26'0 0.0
2017-Oct-17 22:26N 36°08' W 005°26'0 0.0
2017-Oct-17 21:56N 36°08' W 005°26'2 3.3
2017-Oct-17 21:28N 36°08' W 005°24'714.8
2017-Oct-17 21:00N 36°02' W 005°21'713.6
2017-Oct-17 20:30N 35°55' W 005°19'1 2.6
2017-Oct-17 20:00N 35°54' W 005°19'0 0.0
2017-Oct-17 19:27N 35°54' W 005°19'0 0.0
2017-Oct-17 19:00N 35°54' W 005°19'0 0.0
2017-Oct-17 18:30N 35°54' W 005°19'0 0.0
2017-Oct-17 18:00N 35°54' W 005°19'0 0.0
2017-Oct-17 17:30N 35°54' W 005°19'0 0.0
2017-Oct-17 17:00N 35°54' W 005°19'0 0.0
2017-Oct-17 16:30N 35°54' W 005°19'0 0.0
2017-Oct-17 16:00N 35°54' W 005°19'0 0.0
2017-Oct-17 15:30N 35°54' W 005°19'0 0.0
2017-Oct-17 15:00N 35°54' W 005°19'0 0.0
2017-Oct-17 14:30N 35°54' W 005°19'0 0.0
2017-Oct-17 14:00N 35°54' W 005°19'1 2.0
2017-Oct-17 13:31N 35°54' W 005°18'2 3.0
2017-Oct-17 13:00N 35°56' W 005°18'715.0
2017-Oct-17 12:31N 36°03' W 005°22'6 0.9
2017-Oct-17 05:36N 36°08' W 005°26'0 0.0
2017-Oct-17 05:26N 36°08' W 005°26'0 0.0
2017-Oct-17 05:00N 36°08' W 005°26'0 0.0
2017-Oct-17 04:24N 36°08' W 005°26'0 0.0
2017-Oct-17 03:54N 36°08' W 005°26'0 0.0
2017-Oct-17 03:12N 36°08' W 005°26'0 0.0
2017-Oct-17 03:01N 36°08' W 005°26'0 0.0
2017-Oct-17 02:30N 36°08' W 005°26'0 0.0
2017-Oct-17 02:01N 36°08' W 005°26'0 0.0
2017-Oct-17 01:31N 36°08' W 005°26'0 0.0
2017-Oct-16 21:24N 36°08' W 005°26'0 0.0
2017-Oct-16 20:57N 36°08' W 005°26'4 2.0
2017-Oct-16 18:47N 36°05' W 005°22'414.6
2017-Oct-16 18:31N 36°01' W 005°21'713.6
2017-Oct-16 18:01N 35°54' W 005°19'1 1.6
2017-Oct-16 17:30N 35°54' W 005°19'0 0.0
2017-Oct-16 17:00N 35°54' W 005°19'0 0.0
2017-Oct-16 16:30N 35°54' W 005°19'0 0.0
2017-Oct-16 16:00N 35°54' W 005°19'0 0.0
2017-Oct-16 15:30N 35°54' W 005°19'0 0.0
2017-Oct-16 15:00N 35°54' W 005°19'0 0.0
2017-Oct-16 14:00N 35°54' W 005°19'0 0.0
2017-Oct-16 13:30N 35°54' W 005°19'0 0.0
2017-Oct-16 13:00N 35°54' W 005°19'4 8.0
2017-Oct-16 12:31N 35°58' W 005°19'12 1.6
2017-Oct-16 05:15N 36°08' W 005°26'0 0.0
2017-Oct-16 04:59N 36°08' W 005°26'0 0.0
2017-Oct-16 04:27N 36°08' W 005°26'0 0.0
2017-Oct-16 03:51N 36°08' W 005°26'0 0.0
2017-Oct-16 03:27N 36°08' W 005°26'0 0.0
2017-Oct-16 02:51N 36°08' W 005°26'0 0.0
2017-Oct-16 02:21N 36°08' W 005°26'0 0.0
2017-Oct-16 01:51N 36°08' W 005°26'0 0.0
2017-Oct-16 01:27N 36°08' W 005°26'0 0.0
2017-Oct-16 00:57N 36°08' W 005°26'0 0.0
2017-Oct-16 00:27N 36°08' W 005°26'0 0.0
2017-Oct-15 23:57N 36°08' W 005°26'0 0.0
2017-Oct-15 23:29N 36°08' W 005°26'0 0.0
2017-Oct-15 22:51N 36°08' W 005°26'0 0.0
2017-Oct-15 22:27N 36°08' W 005°26'0 0.0
2017-Oct-15 21:57N 36°08' W 005°26'0 0.0
2017-Oct-15 21:27N 36°08' W 005°26'0 0.0
2017-Oct-15 20:58N 36°08' W 005°26'0 0.0
2017-Oct-15 20:22N 36°08' W 005°26'0 0.0
2017-Oct-15 19:52N 36°08' W 005°26'0 0.0
2017-Oct-15 19:28N 36°08' W 005°26'0 0.0
2017-Oct-15 13:58N 36°08' W 005°26'0 0.0
2017-Oct-15 13:28N 36°08' W 005°26'0 0.0
2017-Oct-15 12:58N 36°08' W 005°26'0 0.0
2017-Oct-15 08:06N 36°08' W 005°26'0 0.0
2017-Oct-15 07:58N 36°08' W 005°26'0 0.0
2017-Oct-15 04:22N 36°08' W 005°26'0 0.0
2017-Oct-15 03:58N 36°08' W 005°26'0 0.0
2017-Oct-15 03:28N 36°08' W 005°26'0 0.0
2017-Oct-15 02:58N 36°08' W 005°26'0 0.0
2017-Oct-15 01:22N 36°08' W 005°26'0 0.0
2017-Oct-15 00:58N 36°08' W 005°26'0 0.0
2017-Oct-15 00:28N 36°08' W 005°26'0 0.0
2017-Oct-15 00:00N 36°08' W 005°26'0 0.0
2017-Oct-14 23:28N 36°08' W 005°26'0 0.0
2017-Oct-14 22:58N 36°08' W 005°26'0 0.0
2017-Oct-14 22:28N 36°08' W 005°26'0 0.0
2017-Oct-14 21:58N 36°08' W 005°26'0 0.0
2017-Oct-14 21:28N 36°08' W 005°26'0 0.0
2017-Oct-14 20:58N 36°08' W 005°26'0 0.0
2017-Oct-14 20:22N 36°08' W 005°26'0 0.0
2017-Oct-14 14:52N 36°08' W 005°26'0 0.0
2017-Oct-14 14:30N 36°08' W 005°26'0 0.0
2017-Oct-14 14:00N 36°08' W 005°26'0 0.0
2017-Oct-14 13:22N 36°08' W 005°26'0 0.0
2017-Oct-14 10:04N 36°08' W 005°26'0 0.0
2017-Oct-14 09:58N 36°08' W 005°26'0 0.0
2017-Oct-14 09:22N 36°08' W 005°26'0 0.0
2017-Oct-14 04:40N 36°08' W 005°26'0 0.0
2017-Oct-14 04:22N 36°08' W 005°26'0 0.0
2017-Oct-14 03:52N 36°08' W 005°26'0 0.0
2017-Oct-14 03:10N 36°08' W 005°26'0 0.0
2017-Oct-14 02:52N 36°08' W 005°26'0 0.0
2017-Oct-14 02:04N 36°08' W 005°26'0 0.0
2017-Oct-14 01:46N 36°08' W 005°26'0 0.0
2017-Oct-14 01:16N 36°08' W 005°26'0 0.0
2017-Oct-14 00:58N 36°08' W 005°26'0 0.0
2017-Oct-13 23:46N 36°08' W 005°26'0 0.0
2017-Oct-13 22:55N 36°08' W 005°26'0 0.0
2017-Oct-13 21:40N 36°08' W 005°26'0 0.0
2017-Oct-13 20:37N 36°08' W 005°26'0 0.0
2017-Oct-13 20:19N 36°08' W 005°26'2 3.2
2017-Oct-13 19:50N 36°08' W 005°24'414.0
2017-Oct-13 19:30N 36°03' W 005°22'713.7
2017-Oct-13 19:00N 35°57' W 005°20'3 5.9
2017-Oct-13 18:30N 35°54' W 005°19'0 0.0
2017-Oct-13 18:00N 35°54' W 005°19'0 0.0
2017-Oct-13 17:30N 35°54' W 005°19'0 0.0
2017-Oct-13 17:00N 35°54' W 005°19'0 0.0
2017-Oct-13 16:30N 35°54' W 005°19'0 0.0
2017-Oct-13 16:00N 35°54' W 005°19'0 0.0
2017-Oct-13 15:27N 35°54' W 005°19'0 0.0
2017-Oct-13 15:00N 35°54' W 005°19'0 0.0
2017-Oct-13 14:30N 35°54' W 005°19'1 1.4
2017-Oct-13 14:00N 35°54' W 005°19'0 0.9
2017-Oct-13 13:30N 35°54' W 005°18'2 3.3
2017-Oct-13 13:00N 35°56' W 005°19'813.9
2017-Oct-13 12:28N 36°03' W 005°22'6 0.9
2017-Oct-13 05:48N 36°08' W 005°26'0 0.0
2017-Oct-13 05:24N 36°08' W 005°26'0 0.0
2017-Oct-13 05:00N 36°08' W 005°26'0 0.0
2017-Oct-13 04:30N 36°08' W 005°26'0 0.0
2017-Oct-13 03:54N 36°08' W 005°26'0 0.0
2017-Oct-13 03:30N 36°08' W 005°26'0 0.0
2017-Oct-13 00:48N 36°08' W 005°26'0 0.0
2017-Oct-13 00:30N 36°08' W 005°26'0 0.0
2017-Oct-13 00:00N 36°08' W 005°26'0 0.0
2017-Oct-12 23:18N 36°08' W 005°26'0 0.0
2017-Oct-12 22:56N 36°08' W 005°26'0 0.0
2017-Oct-12 22:26N 36°08' W 005°26'0 0.0
2017-Oct-12 21:56N 36°08' W 005°26'0 0.0
2017-Oct-12 21:30N 36°08' W 005°26'0 0.0
2017-Oct-12 20:38N 36°08' W 005°26'0 0.0
2017-Oct-12 19:24N 36°08' W 005°26'0 0.0
2017-Oct-12 15:45N 36°08' W 005°26'0 0.0
2017-Oct-12 15:30N 36°08' W 005°26'0 0.0
2017-Oct-12 14:18N 36°08' W 005°26'0 0.0
2017-Oct-12 14:00N 36°08' W 005°26'0 0.0
2017-Oct-12 13:24N 36°08' W 005°26'0 0.0
2017-Oct-12 12:42N 36°08' W 005°26'0 0.0
2017-Oct-12 12:30N 36°08' W 005°26'0 0.0
2017-Oct-12 04:54N 36°08' W 005°26'0 0.0
2017-Oct-12 03:18N 36°08' W 005°26'0 0.0
2017-Oct-12 03:00N 36°08' W 005°26'0 0.0
2017-Oct-12 02:24N 36°08' W 005°26'0 0.0
2017-Oct-12 02:00N 36°08' W 005°26'0 0.0
2017-Oct-12 01:30N 36°08' W 005°26'0 0.0
2017-Oct-12 01:00N 36°08' W 005°26'0 0.0
2017-Oct-12 00:25N 36°08' W 005°26'0 0.0
2017-Oct-11 23:49N 36°08' W 005°26'0 0.0
2017-Oct-11 23:19N 36°08' W 005°26'0 0.0
2017-Oct-11 22:55N 36°08' W 005°26'0 0.0
2017-Oct-11 21:19N 36°08' W 005°26'0 0.0
2017-Oct-11 20:55N 36°08' W 005°26'0 0.0
2017-Oct-11 20:16N 36°08' W 005°26'0 0.0
2017-Oct-11 19:55N 36°08' W 005°26'1 0.6
2017-Oct-11 18:04N 36°09' W 005°25'615.8
2017-Oct-11 17:42N 36°04' W 005°22'314.2
2017-Oct-11 17:31N 36°01' W 005°21'714.2
2017-Oct-11 17:00N 35°54' W 005°18'15 0.9
2017-Oct-10 23:58N 36°08' W 005°26'0 0.0
2017-Oct-10 19:58N 36°08' W 005°26'1 2.3
2017-Oct-10 19:30N 36°09' W 005°25'714.0
2017-Oct-10 19:01N 36°02' W 005°21'714.4
2017-Oct-10 18:31N 35°56' W 005°19'2 3.6
2017-Oct-10 18:00N 35°54' W 005°19'0 0.0
2017-Oct-10 17:30N 35°54' W 005°19'0 0.0
2017-Oct-10 17:00N 35°54' W 005°19'0 0.0
2017-Oct-10 16:30N 35°54' W 005°19'0 0.0
2017-Oct-10 16:00N 35°54' W 005°19'0 0.0
2017-Oct-10 15:30N 35°54' W 005°19'0 0.0
2017-Oct-10 15:00N 35°54' W 005°19'0 0.0
2017-Oct-10 14:00N 35°54' W 005°19'0 0.0
2017-Oct-10 13:30N 35°54' W 005°19'0 0.0
2017-Oct-10 13:00N 35°54' W 005°19'2 4.7
2017-Oct-10 12:30N 35°56' W 005°19'815.0
2017-Oct-10 12:00N 36°03' W 005°22'612.0
2017-Oct-10 11:29N 36°09' W 005°26'1 1.2
2017-Oct-10 10:56N 36°08' W 005°26'  

Dump ship's entire track history